Du har inga inställningar för hoppväder.nu

Hoppväder.nu

Senast uppdaterat 13:57

UTC-tid

2021-09-21 kl. 11:57


Sol och måne

Solen går upp 6:49 och går ner 19:52 (beräknade cirkatider)
Nästa fullmåne blir om 29 dagar (2021-10-20)

METAR

ESSD (Borlänge)
(7 minuter sedan)
ESSD 211150Z 17006KT 9000 -RA SCT007 OVC046 08/07 Q1019=



ESOE (Örebro)
(7 minuter sedan)
ESOE 211150Z AUTO 18010KT 9999 -RA FEW064/// 10/07 Q1021=



ESOW (Västerås)
(7 minuter sedan)
ESOW 211150Z 21008KT 9999 -RA FEW021 BKN031 BKN049 10/06 Q1022=



ESOK (Karlstad)
(7 minuter sedan)
ESOK 211150Z 21008KT 5000 RA FEW005 BKN008 10/10 Q1019=






TAF

ESSD (Borlänge)
(27 minuter sedan)
ESSD 211130Z 2112/2116 19009KT 9999 -RA BKN040 TEMPO 2112/2113 RA BKN014 BECMG 2113/2115 4000 BR BKN008=



ESOE (Örebro)
ESOE



ESOW (Västerås)
(27 minuter sedan)
ESOW 211130Z 2112/2115 19007KT 9999 -RA BKN035 PROB40 2112/2115 RA=



ESOK (Karlstad)
(27 minuter sedan)
ESOK 211130Z 2112/2115 19008KT 9999 -RA SCT007 BKN015 PROB40 2112/2115 2500 RADZ BR BKN005=





Kodnycklar till TAF och METAR






LHP

(Borlänge är område se34c i Delområde 1)

Översikt

ÖVERSIKT FÖR OMRÅDE se3 UTFÄRDAD 211149

GÄLLANDE DEN 21 SEPTEMBER 2021 MELLAN 12 OCH 20 UTC


Väderöversikt

Ett frontsystem rör sig österut.

Sikt under 5 kilometer eller molnbas under 1000 fot
12-20UTC: Hela området utom se33


Måttlig eller svår isbildning
12-18UTC: I hela området
18-20UTC: Hela området utom se31


Måttlig eller svår turbulens
Väntas inte förekomma under perioden

Delområde 1

PROGNOS FÖR OMRÅDE se34 UTFÄRDAD 211149
GÄLLANDE DEN 21 SEPTEMBER 2021 MELLAN 12 OCH 20 UTC

Måttlig eller svår turbulens
12-20UTC: I hela området: Väntas inte förekomma under perioden

Måttlig eller svår isbildning
12-20UTC: Område se34a,se34f,se34e,se34d,se34c: måttlig isbildning FL050 - > FL125
Område se34b: måttlig isbildning 4000ft - FL060, måttlig isbildning FL050 - > FL125


Sikt/Väder/Moln
12-14UTC: Område se34d: Sikt 1.5km - >8km i dis, regn. Molnbas 500ft - >2000ft.
Område se34a,se34e: Sikt >8km i regn, lokalt 3km - 5km. Molnbas >2000ft, lokalt 1000ft - 1500ft.
Område se34c: Sikt <1.5km - >8km i dis, regn. Molnbas <500ft - >2000ft.
Område se34b,se34f: Sikt 3km - >8km i regn. Molnbas 1000ft - >2000ft.

14-16UTC: Område se34b,se34f: Sikt 1.5km - >8km i dis, regn. Molnbas 500ft - >2000ft.
Område se34a,se34e,se34d,se34c: Sikt >8km i regn, lokalt 1.5km - 3km i dis. Molnbas >2000ft, lokalt 500ft - 1000ft.

16-18UTC: Område se34b,se34f: Sikt 5km - >8km i dis. Molnbas <500ft - >2000ft.
Område se34e: Sikt 1.5km - >8km i dis, regn. Molnbas <500ft - >2000ft.
Område se34c: Sikt <1.5km - >8km i dis, regn. Molnbas <500ft - >2000ft.

16-20UTC: Område se34a,se34d: Sikt 1.5km - >8km i dis, regn. Molnbas <500ft - >2000ft.

18-20UTC: Område se34f: Sikt 3km - >8km i dis, regn. Molnbas 1000ft - >2000ft.
Område se34e: Sikt 3km - 5km i regn, lokalt >8km i dis. Molnbas 1000ft - 1500ft, lokalt >2000ft.
Område se34b,se34c: Sikt 1.5km - >8km i dis, regn. Molnbas <500ft - >2000ft.


Molnöversida
12-20UTC: I hela området: Molnöversida > FL125.

CB/TCU Moln
12-16UTC: Område se34c: ISOL EMBD CB

12-20UTC: Område se34b,se34a,se34f,se34e,se34d: ISOL EMBD CB

16-18UTC: Område se34c: Väntas inte förekomma under perioden

18-20UTC: Område se34c: ISOL EMBD CB


Nollgradersisoterm
12-20UTC: Noll grader 4000ft - FL070.

Vind vid marken
12-14UTC: Område se34a: S-SV/3-16 knop, byar upp till 20 knop.
Område se34b: S-SV/1-11 knop, byar upp till 16 knop.
Område se34d: S/2-8 knop, byar upp till 21 knop.
Område se34e: S/2-8 knop, byar upp till 15 knop.
Område se34c: S/2-11 knop, byar upp till 21 knop.
Område se34f: SV/2-7 knop, byar upp till 15 knop.

14-16UTC: Område se34e: S/1-9 knop, byar upp till 14 knop.
Område se34c: S-SV/0-11 knop, byar upp till 17 knop.
Område se34b: S-SV/2-12 knop, byar upp till 16 knop.
Område se34f: SV/1-5 knop, byar upp till 12 knop.
Område se34a: S-SV/2-17 knop, byar upp till 21 knop.
Område se34d: S/0-8 knop, byar upp till 16 knop.

16-18UTC: Område se34c: S-SV/0-9 knop, byar upp till 16 knop.
Område se34a: S-SV/2-16 knop, byar upp till 21 knop.
Område se34f: S/0-4 knop.
Område se34d: S-SV/1-6 knop, byar upp till 13 knop.
Område se34b: S-SV/0-14 knop, byar upp till 18 knop.
Område se34e: S/2-8 knop, byar upp till 14 knop.

18-20UTC: Område se34a: S-SV/1-14 knop, byar upp till 19 knop.
Område se34b: S-SV/0-13 knop, byar upp till 18 knop.
Område se34f: SO-S/0-4 knop.
Område se34e: S/0-6 knop.
Område se34d: S-SV/0-5 knop.
Område se34c: S-SV/0-7 knop, byar upp till 11 knop.


Genomsnittlig vind och temperatur för området
2000ft:
12-14UTC: 230/18kt +4.
14-16UTC: 240/17kt +4.
16-18UTC: 240/14kt +4.
18-20UTC: 250/11kt +4.

FL50:
12-14UTC: 260/14kt +0.
14-16UTC: 260/11kt +0.
16-18UTC: 260/9kt +0.
18-20UTC: 250/7kt +0.

FL100:
12-14UTC: 280/12kt -7.
14-16UTC: 290/11kt -7.
16-18UTC: 300/9kt -7.
18-20UTC: 320/8kt -7.

Lägsta QNH
1018 hPa.

OBS! endast utbredd måttlig eller svår isbildning och turbulens prognostiseras i LLF.
Avsaknad av isbildning och turbulens i prognosen utesluter inte förekomst av lätt isbildning och turbulens.
För indikation på lätt isbildning, var vänlig kontrollera om prognosen för molntopp ligger högre än nollgradersisotermen.
Förekomst av TCU eller CB medför alltid en risk för måttlig eller svår isbildning och turbulens även om det inte framgår explicit av prognosen.







Spotting

Hur fungerar spotthjälpen och Vindkartan?

Markvind är ca 1-6 m/s med byar på 11 m/s.
Vind på 600 m ca 9 m/s.
Vind på 1500 m ca 7 m/s.
Vind på 3000 m ca 6 m/s.
Rudolf-David flyger ca 35 m/s över marken på finalen.
Du driver ca 278 m bakåt i frifall. (370 m)
Lämplig spot är 0 sekunder eller 0 m innan gropen.
(3s eller 105 m)
För små grupper eller ensamhoppare bör man vänta 4-6 sekunder mellan grupperna.
För större grupper bör man vänta 9-11 sekunder mellan grupperna.


Vindkartan

Senast uppdaterad 13:57




All data kommer från LFV.se